createdAt,value
2018-11-04T00:01:36.451Z,7.82
2018-11-04T00:04:05.068Z,7.98
2018-11-04T00:06:33.672Z,7.91
2018-11-04T00:09:02.390Z,7.87
2018-11-04T00:11:31.049Z,7.87
2018-11-04T00:13:59.862Z,7.96
2018-11-04T00:16:28.512Z,8.01
2018-11-04T00:18:57.257Z,8.00
2018-11-04T00:21:25.998Z,7.95
2018-11-04T00:23:54.801Z,8.11
2018-11-04T00:26:23.527Z,7.91
2018-11-04T00:28:52.161Z,7.91
2018-11-04T00:31:20.729Z,7.90
2018-11-04T00:33:49.365Z,7.82
2018-11-04T00:36:18.129Z,7.90
2018-11-04T00:38:46.737Z,7.86
2018-11-04T00:41:15.352Z,7.82
2018-11-04T00:43:43.998Z,7.83
2018-11-04T00:46:12.546Z,7.83
2018-11-04T00:48:41.401Z,7.86
2018-11-04T00:51:10.060Z,7.87
2018-11-04T00:53:39.129Z,7.92
2018-11-04T00:56:07.813Z,7.82
2018-11-04T00:58:36.535Z,7.93
2018-11-04T01:01:05.797Z,7.88
2018-11-04T01:03:34.398Z,7.98
2018-11-04T01:06:03.385Z,8.19
2018-11-04T01:08:32.064Z,8.16
2018-11-04T01:11:00.758Z,8.00
2018-11-04T01:13:29.448Z,8.03
2018-11-04T01:15:58.029Z,8.10
2018-11-04T01:18:26.889Z,8.10
2018-11-04T01:20:55.470Z,8.00
2018-11-04T01:23:24.073Z,7.98
2018-11-04T01:25:52.684Z,7.97
2018-11-04T01:28:21.297Z,7.97
2018-11-04T01:30:49.889Z,7.94
2018-11-04T01:33:18.472Z,8.04
2018-11-04T01:35:47.142Z,8.11
2018-11-04T01:38:15.701Z,8.05
2018-11-04T01:40:44.248Z,7.98
2018-11-04T01:43:12.865Z,7.94
2018-11-04T01:45:41.497Z,8.01
2018-11-04T01:48:10.049Z,7.99
2018-11-04T01:50:38.677Z,8.02
2018-11-04T01:53:07.305Z,7.97
2018-11-04T01:55:35.872Z,8.02
2018-11-04T01:58:04.425Z,8.01
2018-11-04T02:00:33.080Z,8.00
2018-11-04T02:03:01.616Z,8.02
2018-11-04T02:05:30.307Z,8.12
2018-11-04T02:07:58.972Z,8.07
2018-11-04T02:10:27.582Z,8.09
2018-11-04T02:12:56.260Z,8.07
2018-11-04T02:15:24.865Z,8.22
2018-11-04T02:17:53.396Z,8.14
2018-11-04T02:20:22.404Z,8.09
2018-11-04T02:22:50.993Z,8.13
2018-11-04T02:25:19.805Z,8.12
2018-11-04T02:27:48.304Z,8.11
2018-11-04T02:30:17.754Z,8.14
2018-11-04T02:32:46.966Z,8.15
2018-11-04T02:35:16.273Z,8.14
2018-11-04T02:37:45.164Z,8.39
2018-11-04T02:40:14.073Z,8.29
2018-11-04T02:42:42.696Z,8.23
2018-11-04T02:45:11.968Z,8.19
2018-11-04T02:47:40.755Z,8.18
2018-11-04T02:50:10.360Z,8.27
2018-11-04T02:52:39.484Z,8.19
2018-11-04T02:55:08.713Z,8.21
2018-11-04T02:57:37.733Z,8.25
2018-11-04T03:00:08.736Z,8.18
2018-11-04T03:02:37.517Z,8.26
2018-11-04T03:05:07.257Z,8.23
2018-11-04T03:07:36.287Z,8.23
2018-11-04T03:10:05.167Z,8.23
2018-11-04T03:12:34.091Z,8.22
2018-11-04T03:15:03.200Z,8.18
2018-11-04T03:17:32.001Z,8.27
2018-11-04T03:20:00.908Z,8.21
2018-11-04T03:22:29.628Z,8.26
2018-11-04T03:24:58.530Z,8.34
2018-11-04T03:27:27.286Z,8.35
2018-11-04T03:29:56.212Z,8.19
2018-11-04T03:32:25.009Z,8.25
2018-11-04T03:34:53.730Z,8.20
2018-11-04T03:37:22.937Z,8.18
2018-11-04T03:39:51.745Z,8.17
2018-11-04T03:42:20.544Z,8.18
2018-11-04T03:44:49.426Z,8.24
2018-11-04T03:47:18.331Z,8.16
2018-11-04T03:49:47.088Z,8.24
2018-11-04T03:52:15.854Z,8.15
2018-11-04T03:54:44.649Z,8.15
2018-11-04T03:57:13.433Z,8.18
2018-11-04T03:59:42.249Z,8.19
2018-11-04T04:02:10.949Z,8.17
2018-11-04T04:04:39.661Z,8.17
2018-11-04T04:07:08.504Z,8.23
2018-11-04T04:09:37.340Z,8.16
2018-11-04T04:12:06.965Z,8.27
2018-11-04T04:14:35.762Z,8.42
2018-11-04T04:17:04.493Z,8.25
2018-11-04T04:19:33.262Z,8.20
2018-11-04T04:22:02.080Z,8.19
2018-11-04T04:24:30.777Z,8.27
2018-11-04T04:26:59.543Z,8.24
2018-11-04T04:29:28.466Z,8.21
2018-11-04T04:31:57.268Z,8.23
2018-11-04T04:34:25.962Z,8.40
2018-11-04T04:36:54.768Z,8.30
2018-11-04T04:39:24.269Z,8.47
2018-11-04T04:41:53.185Z,8.35
2018-11-04T04:44:22.002Z,8.30
2018-11-04T04:46:50.785Z,8.26
2018-11-04T04:49:19.517Z,8.25
2018-11-04T04:51:48.287Z,8.22
2018-11-04T04:54:17.086Z,8.24
2018-11-04T04:56:47.843Z,8.39
2018-11-04T04:59:17.228Z,8.27
2018-11-04T05:01:46.437Z,8.25
2018-11-04T05:04:15.778Z,8.19
2018-11-04T05:06:45.004Z,8.20
2018-11-04T05:09:13.905Z,8.27
2018-11-04T05:11:42.766Z,8.22
2018-11-04T05:14:11.470Z,8.08
2018-11-04T05:16:40.290Z,8.09
2018-11-04T05:19:09.194Z,8.07
2018-11-04T05:21:37.872Z,8.05
2018-11-04T05:24:06.776Z,8.08
2018-11-04T05:26:35.545Z,8.09
2018-11-04T05:29:04.911Z,8.20
2018-11-04T05:31:33.578Z,8.26
2018-11-04T05:34:02.492Z,8.24
2018-11-04T05:36:31.073Z,8.22
2018-11-04T05:38:59.636Z,8.18
2018-11-04T05:41:28.225Z,8.21
2018-11-04T05:43:57.009Z,8.35
2018-11-04T05:46:25.636Z,8.39
2018-11-04T05:48:54.409Z,8.32
2018-11-04T05:51:23.049Z,8.30
2018-11-04T05:53:51.804Z,8.31
2018-11-04T05:56:20.429Z,8.28
2018-11-04T05:58:49.073Z,8.42
2018-11-04T06:01:17.598Z,8.32
2018-11-04T06:03:46.241Z,8.25
2018-11-04T06:06:15.061Z,8.26
2018-11-04T06:08:43.773Z,8.30
2018-11-04T06:11:12.456Z,8.36
2018-11-04T06:13:41.273Z,8.36
2018-11-04T06:16:10.093Z,8.35
2018-11-04T06:18:38.901Z,8.26
2018-11-04T06:21:07.801Z,8.36
2018-11-04T06:23:36.392Z,8.37
2018-11-04T06:26:05.211Z,8.36
2018-11-04T06:28:34.073Z,8.42
2018-11-04T06:31:02.708Z,8.55
2018-11-04T06:33:31.309Z,8.57
2018-11-04T06:36:00.058Z,8.50
2018-11-04T06:38:28.780Z,8.58
2018-11-04T06:40:57.421Z,8.46
2018-11-04T06:43:26.036Z,8.48
2018-11-04T06:45:54.703Z,8.39
2018-11-04T06:48:23.287Z,8.45
2018-11-04T06:50:51.940Z,8.40
2018-11-04T06:53:20.505Z,8.46
2018-11-04T06:55:49.147Z,8.44
2018-11-04T06:58:17.665Z,8.44
2018-11-04T07:00:46.293Z,8.46
2018-11-04T07:03:14.884Z,8.48
2018-11-04T07:05:43.528Z,8.51
2018-11-04T07:08:12.100Z,8.46
2018-11-04T07:10:40.860Z,8.50
2018-11-04T07:13:09.525Z,8.50
2018-11-04T07:15:38.091Z,8.54
2018-11-04T07:18:06.778Z,8.63
2018-11-04T07:20:35.468Z,8.70
2018-11-04T07:23:04.092Z,8.78
2018-11-04T07:25:32.995Z,8.77
2018-11-04T07:28:01.618Z,8.71
2018-11-04T07:30:30.256Z,8.73
2018-11-04T07:32:58.861Z,8.80
2018-11-04T07:35:27.516Z,8.82
2018-11-04T07:37:56.169Z,8.91
2018-11-04T07:40:24.845Z,8.84
2018-11-04T07:42:53.413Z,8.78
2018-11-04T07:45:21.997Z,8.80
2018-11-04T07:47:50.630Z,8.94
2018-11-04T07:50:19.241Z,8.96
2018-11-04T07:52:47.890Z,8.93
2018-11-04T07:55:16.528Z,8.89
2018-11-04T07:57:45.150Z,8.86
2018-11-04T08:00:15.409Z,8.87
2018-11-04T08:02:44.425Z,8.84
2018-11-04T08:05:13.593Z,8.97
2018-11-04T08:07:42.552Z,8.88
2018-11-04T08:10:13.433Z,9.08
2018-11-04T08:12:42.092Z,9.00
2018-11-04T08:15:11.490Z,8.96
2018-11-04T08:17:40.750Z,8.98
2018-11-04T08:20:10.113Z,8.96
2018-11-04T08:22:39.113Z,8.99
2018-11-04T08:25:07.704Z,9.04
2018-11-04T08:27:36.441Z,8.98
2018-11-04T08:30:06.080Z,8.97
2018-11-04T08:32:34.720Z,8.94
2018-11-04T08:35:03.379Z,9.00
2018-11-04T08:37:31.964Z,9.02
2018-11-04T08:40:00.698Z,9.09
2018-11-04T08:42:29.301Z,9.10
2018-11-04T08:44:58.128Z,9.15
2018-11-04T08:47:26.688Z,9.18
2018-11-04T08:49:55.197Z,9.24
2018-11-04T08:52:23.851Z,9.26
2018-11-04T08:54:52.422Z,9.39
2018-11-04T08:57:21.082Z,9.35
2018-11-04T08:59:49.699Z,9.42
2018-11-04T09:02:18.284Z,9.49
2018-11-04T09:04:46.964Z,9.45
2018-11-04T09:07:15.675Z,9.55
2018-11-04T09:09:44.497Z,9.55
2018-11-04T09:12:13.124Z,9.47
2018-11-04T09:14:41.937Z,9.48
2018-11-04T09:17:10.537Z,9.55
2018-11-04T09:19:39.105Z,9.67
2018-11-04T09:22:08.315Z,9.92
2018-11-04T09:24:36.952Z,10.07
2018-11-04T09:27:05.792Z,9.92
2018-11-04T09:29:34.428Z,9.96
2018-11-04T09:32:03.492Z,9.95
2018-11-04T09:34:32.070Z,9.88
2018-11-04T09:37:00.664Z,9.90
2018-11-04T09:39:29.357Z,9.93
2018-11-04T09:41:57.940Z,9.94
2018-11-04T09:44:26.504Z,9.93
2018-11-04T09:46:55.185Z,10.06
2018-11-04T09:49:23.886Z,10.12
2018-11-04T09:51:52.676Z,10.03
2018-11-04T09:54:21.301Z,10.02
2018-11-04T09:56:49.919Z,10.15
2018-11-04T09:59:18.701Z,10.22
2018-11-04T10:01:47.271Z,10.17
2018-11-04T10:04:15.969Z,10.28
2018-11-04T10:06:44.566Z,10.43
2018-11-04T10:09:13.148Z,10.50
2018-11-04T10:11:41.945Z,10.49
2018-11-04T10:14:10.501Z,10.62
2018-11-04T10:16:39.352Z,10.93
2018-11-04T10:19:08.053Z,10.98
2018-11-04T10:21:36.658Z,10.72
2018-11-04T10:24:05.822Z,10.61
2018-11-04T10:26:34.425Z,11.05
2018-11-04T10:29:03.163Z,10.76
2018-11-04T10:31:31.943Z,10.76
2018-11-04T10:34:00.654Z,11.05
2018-11-04T10:36:29.216Z,11.08
2018-11-04T10:38:57.959Z,11.31
2018-11-04T10:41:26.653Z,11.22
2018-11-04T10:43:55.193Z,11.17
2018-11-04T10:46:23.939Z,11.58
2018-11-04T10:48:52.584Z,11.24
2018-11-04T10:51:21.205Z,11.16
2018-11-04T10:53:49.844Z,11.38
2018-11-04T10:56:18.656Z,11.78
2018-11-04T10:58:47.439Z,11.49
2018-11-04T11:01:15.956Z,11.62
2018-11-04T11:03:44.591Z,11.53
2018-11-04T11:06:13.240Z,11.55
2018-11-04T11:08:41.880Z,11.44
2018-11-04T11:11:10.945Z,11.73
2018-11-04T11:13:39.503Z,11.89
2018-11-04T11:16:08.094Z,11.66
2018-11-04T11:18:36.708Z,11.74
2018-11-04T11:21:05.448Z,11.57
2018-11-04T11:23:34.056Z,11.42
2018-11-04T11:26:02.709Z,11.58
2018-11-04T11:28:31.420Z,11.76
2018-11-04T11:31:00.027Z,11.89
2018-11-04T11:33:28.713Z,11.87
2018-11-04T11:35:57.401Z,11.80
2018-11-04T11:38:26.174Z,11.85
2018-11-04T11:40:54.880Z,11.81
2018-11-04T11:43:23.594Z,11.84
2018-11-04T11:45:52.133Z,11.86
2018-11-04T11:48:20.764Z,11.82
2018-11-04T11:50:49.339Z,11.82
2018-11-04T11:53:18.084Z,12.03
2018-11-04T11:55:46.770Z,12.34
2018-11-04T11:58:15.364Z,12.14
2018-11-04T12:00:43.957Z,12.15
2018-11-04T12:03:12.516Z,12.35
2018-11-04T12:05:41.103Z,12.19
2018-11-04T12:08:09.757Z,12.25
2018-11-04T12:10:38.324Z,12.62
2018-11-04T12:13:06.928Z,12.65
2018-11-04T12:15:35.746Z,12.37
2018-11-04T12:18:04.453Z,12.19
2018-11-04T12:20:33.201Z,12.30
2018-11-04T12:23:01.801Z,12.19
2018-11-04T12:25:30.464Z,12.15
2018-11-04T12:27:59.159Z,12.13
2018-11-04T12:30:27.858Z,12.12
2018-11-04T12:32:56.414Z,12.20
2018-11-04T12:35:25.131Z,12.53
2018-11-04T12:37:53.620Z,12.55
2018-11-04T12:40:22.147Z,12.57
2018-11-04T12:42:51.380Z,12.50
2018-11-04T12:45:20.053Z,12.49
2018-11-04T12:47:48.760Z,12.90
2018-11-04T12:50:17.365Z,12.46
2018-11-04T12:52:46.056Z,12.55
2018-11-04T12:55:14.837Z,12.63
2018-11-04T12:57:43.381Z,12.55
2018-11-04T13:00:13.973Z,12.45
2018-11-04T13:02:43.505Z,12.46
2018-11-04T13:05:12.137Z,12.64
2018-11-04T13:07:40.788Z,12.63
2018-11-04T13:10:11.392Z,12.63
2018-11-04T13:12:40.244Z,12.42
2018-11-04T13:15:10.408Z,12.31
2018-11-04T13:17:39.172Z,12.40
2018-11-04T13:20:07.865Z,12.38
2018-11-04T13:22:36.577Z,12.49
2018-11-04T13:25:06.001Z,12.47
2018-11-04T13:27:34.725Z,12.42
2018-11-04T13:30:03.563Z,12.33
2018-11-04T13:32:32.361Z,12.31
2018-11-04T13:35:00.940Z,12.34
2018-11-04T13:37:29.696Z,12.37
2018-11-04T13:39:58.252Z,12.36
2018-11-04T13:42:26.889Z,12.34
2018-11-04T13:44:55.432Z,12.32
2018-11-04T13:47:24.046Z,12.36
2018-11-04T13:49:52.688Z,12.38
2018-11-04T13:52:21.310Z,12.33
2018-11-04T13:54:49.897Z,12.39
2018-11-04T13:57:18.608Z,12.48
2018-11-04T13:59:47.136Z,12.38
2018-11-04T14:02:15.793Z,12.38
2018-11-04T14:04:44.370Z,12.38
2018-11-04T14:07:12.919Z,12.38
2018-11-04T14:09:41.624Z,12.31
2018-11-04T14:12:10.188Z,12.23
2018-11-04T14:14:39.043Z,12.18
2018-11-04T14:17:07.682Z,12.20
2018-11-04T14:19:36.317Z,12.24
2018-11-04T14:22:05.177Z,12.24
2018-11-04T14:24:33.769Z,12.24
2018-11-04T14:27:02.448Z,12.21
2018-11-04T14:29:31.183Z,12.19
2018-11-04T14:31:59.854Z,12.19
2018-11-04T14:34:28.428Z,12.22
2018-11-04T14:36:57.001Z,12.27
2018-11-04T14:39:25.674Z,12.16
2018-11-04T14:41:54.369Z,12.05
2018-11-04T14:44:23.205Z,12.08
2018-11-04T14:46:51.907Z,12.13
2018-11-04T14:49:20.546Z,12.06
2018-11-04T14:51:49.282Z,12.01
2018-11-04T14:54:17.856Z,12.06
2018-11-04T14:56:46.805Z,12.06
2018-11-04T14:59:15.325Z,11.96
2018-11-04T15:01:43.970Z,11.97
2018-11-04T15:04:12.705Z,11.97
2018-11-04T15:06:41.407Z,12.02
2018-11-04T15:09:10.045Z,12.01
2018-11-04T15:11:39.009Z,12.02
2018-11-04T15:14:07.761Z,12.00
2018-11-04T15:16:36.377Z,12.01
2018-11-04T15:19:05.232Z,12.10
2018-11-04T15:21:34.188Z,11.99
2018-11-04T15:24:02.888Z,11.97
2018-11-04T15:26:31.507Z,11.99
2018-11-04T15:29:00.180Z,11.94
2018-11-04T15:31:28.730Z,11.95
2018-11-04T15:33:57.452Z,11.96
2018-11-04T15:36:26.101Z,12.01
2018-11-04T15:38:54.773Z,11.94
2018-11-04T15:41:23.465Z,11.93
2018-11-04T15:43:52.035Z,11.90
2018-11-04T15:46:20.788Z,11.95
2018-11-04T15:48:49.376Z,11.92
2018-11-04T15:51:18.013Z,11.95
2018-11-04T15:53:46.610Z,11.99
2018-11-04T15:56:15.163Z,11.98
2018-11-04T15:58:43.752Z,11.99
2018-11-04T16:01:14.269Z,11.93
2018-11-04T16:03:43.223Z,11.99
2018-11-04T16:06:11.944Z,11.96
2018-11-04T16:08:40.684Z,11.93
2018-11-04T16:11:09.253Z,11.89
2018-11-04T16:13:37.825Z,11.92
2018-11-04T16:16:06.917Z,11.96
2018-11-04T16:18:35.584Z,11.93
2018-11-04T16:21:04.420Z,11.86
2018-11-04T16:23:33.111Z,11.82
2018-11-04T16:26:01.961Z,11.85
2018-11-04T16:28:30.563Z,11.81
2018-11-04T16:30:59.195Z,11.85
2018-11-04T16:33:27.862Z,11.82
2018-11-04T16:35:56.521Z,11.86
2018-11-04T16:38:25.389Z,11.86
2018-11-04T16:40:56.234Z,11.87
2018-11-04T16:43:24.958Z,12.03
2018-11-04T16:45:53.500Z,11.88
2018-11-04T16:48:22.160Z,11.84
2018-11-04T16:50:51.869Z,11.80
2018-11-04T16:53:20.529Z,11.85
2018-11-04T16:55:49.096Z,11.82
2018-11-04T16:58:17.711Z,11.80
2018-11-04T17:00:46.309Z,11.77
2018-11-04T17:03:14.900Z,11.79
2018-11-04T17:05:43.991Z,11.80
2018-11-04T17:08:12.401Z,11.81
2018-11-04T17:10:40.985Z,11.77
2018-11-04T17:13:09.676Z,11.79
2018-11-04T17:15:38.316Z,11.78
2018-11-04T17:18:06.943Z,11.79
2018-11-04T17:20:35.509Z,11.83
2018-11-04T17:23:04.253Z,11.81
2018-11-04T17:25:32.961Z,11.76
2018-11-04T17:28:01.493Z,11.80
2018-11-04T17:30:30.269Z,11.95
2018-11-04T17:32:59.420Z,11.91
2018-11-04T17:35:28.483Z,11.76
2018-11-04T17:37:57.121Z,11.76
2018-11-04T17:40:25.676Z,11.83
2018-11-04T17:42:54.677Z,11.75
2018-11-04T17:45:23.221Z,11.77
2018-11-04T17:47:52.390Z,11.81
2018-11-04T17:50:21.245Z,11.80
2018-11-04T17:52:49.764Z,11.76
2018-11-04T17:55:18.455Z,11.80
2018-11-04T17:57:47.267Z,11.77
2018-11-04T18:00:17.022Z,11.78
2018-11-04T18:02:45.672Z,11.78
2018-11-04T18:05:14.760Z,11.80
2018-11-04T18:07:44.017Z,11.81
2018-11-04T18:10:13.506Z,11.79
2018-11-04T18:12:42.529Z,11.81
2018-11-04T18:15:12.129Z,11.87
2018-11-04T18:17:40.796Z,12.00
2018-11-04T18:20:10.701Z,11.85
2018-11-04T18:22:39.404Z,11.82
2018-11-04T18:25:09.608Z,11.80
2018-11-04T18:27:38.332Z,11.96
2018-11-04T18:30:09.690Z,11.99
2018-11-04T18:32:38.349Z,11.97
2018-11-04T18:35:06.960Z,12.02
2018-11-04T18:37:35.735Z,11.85
2018-11-04T18:40:05.035Z,11.78
2018-11-04T18:42:33.806Z,11.73
2018-11-04T18:45:02.345Z,11.71
2018-11-04T18:47:39.196Z,11.73
2018-11-04T18:50:09.295Z,11.69
2018-11-04T18:52:38.359Z,11.69
2018-11-04T18:55:08.371Z,11.71
2018-11-04T18:57:37.209Z,11.69
2018-11-04T19:00:07.809Z,11.67
2018-11-04T19:02:36.403Z,11.66
2018-11-04T19:05:05.849Z,11.66
2018-11-04T19:07:34.440Z,11.68
2018-11-04T19:10:03.177Z,11.72
2018-11-04T19:12:31.757Z,11.85
2018-11-04T19:15:08.017Z,11.74
2018-11-04T19:17:36.839Z,11.73
2018-11-04T19:20:06.841Z,11.69
2018-11-04T19:22:35.540Z,11.67
2018-11-04T19:25:04.257Z,11.62
2018-11-04T19:27:32.833Z,11.69
2018-11-04T19:30:01.451Z,11.71
2018-11-04T19:32:30.423Z,11.77
2018-11-04T19:34:59.057Z,11.75
2018-11-04T19:37:28.970Z,11.89
2018-11-04T19:39:57.772Z,11.91
2018-11-04T19:42:26.539Z,11.98
2018-11-04T19:44:55.687Z,11.78
2018-11-04T19:47:24.345Z,11.76
2018-11-04T19:49:53.438Z,11.79
2018-11-04T19:52:22.092Z,11.78
2018-11-04T19:54:51.167Z,11.72
2018-11-04T19:57:22.631Z,11.67
2018-11-04T19:59:51.268Z,11.64
2018-11-04T20:02:20.185Z,11.61
2018-11-04T20:04:48.774Z,11.68
2018-11-04T20:07:17.524Z,11.56
2018-11-04T20:09:46.198Z,11.58
2018-11-04T20:12:20.220Z,11.60
2018-11-04T20:14:48.961Z,11.62
2018-11-04T20:17:18.877Z,11.57
2018-11-04T20:19:52.843Z,11.56
2018-11-04T20:22:22.020Z,11.64
2018-11-04T20:24:55.992Z,11.58
2018-11-04T20:27:24.665Z,11.54
2018-11-04T20:29:53.293Z,11.60
2018-11-04T20:32:27.113Z,11.59
2018-11-04T20:34:55.654Z,11.57
2018-11-04T20:37:24.500Z,11.58
2018-11-04T20:39:58.317Z,11.52
2018-11-04T20:42:27.276Z,11.53
2018-11-04T20:44:55.964Z,11.53
2018-11-04T20:47:29.701Z,11.53
2018-11-04T20:50:03.641Z,11.51
2018-11-04T20:52:32.306Z,11.54
2018-11-04T20:55:00.948Z,11.53
2018-11-04T20:57:34.745Z,11.52
2018-11-04T21:00:03.389Z,11.52
2018-11-04T21:02:32.065Z,11.59
2018-11-04T21:05:00.769Z,11.53
2018-11-04T21:07:29.366Z,11.49
2018-11-04T21:09:58.110Z,11.52
2018-11-04T21:12:26.909Z,11.52
2018-11-04T21:14:55.485Z,11.50
2018-11-04T21:17:24.033Z,11.41
2018-11-04T21:19:52.885Z,11.47
2018-11-04T21:22:21.498Z,11.50
2018-11-04T21:24:50.019Z,11.50
2018-11-04T21:27:18.652Z,11.47
2018-11-04T21:29:47.718Z,11.46
2018-11-04T21:32:15.989Z,11.45
2018-11-04T21:34:44.763Z,11.45
2018-11-04T21:37:13.493Z,11.46
2018-11-04T21:39:42.057Z,11.45
2018-11-04T21:42:10.658Z,11.58
2018-11-04T21:44:39.294Z,11.61
2018-11-04T21:47:07.868Z,11.64
2018-11-04T21:49:36.655Z,11.76
2018-11-04T21:52:05.461Z,11.54
2018-11-04T21:54:34.001Z,11.42
2018-11-04T21:57:02.665Z,11.43
2018-11-04T21:59:31.356Z,11.39
2018-11-04T22:01:59.888Z,11.36
2018-11-04T22:04:28.663Z,11.38
2018-11-04T22:06:57.228Z,11.38
2018-11-04T22:09:25.808Z,11.37
2018-11-04T22:11:54.741Z,11.35
2018-11-04T22:14:23.320Z,11.35
2018-11-04T22:16:51.888Z,11.38
2018-11-04T22:19:20.665Z,11.35
2018-11-04T22:21:49.304Z,11.35
2018-11-04T22:24:17.924Z,11.35
2018-11-04T22:26:46.561Z,11.33
2018-11-04T22:29:15.260Z,11.34
2018-11-04T22:31:43.816Z,11.30
2018-11-04T22:34:12.479Z,11.29
2018-11-04T22:36:41.402Z,11.29
2018-11-04T22:39:10.454Z,11.28
2018-11-04T22:41:39.140Z,11.29
2018-11-04T22:44:08.157Z,11.30
2018-11-04T22:46:36.797Z,11.41
2018-11-04T22:49:05.649Z,11.31
2018-11-04T22:51:34.244Z,11.29
2018-11-04T22:54:03.151Z,11.33
2018-11-04T22:56:31.821Z,11.33
2018-11-04T22:59:00.372Z,11.28
2018-11-04T23:01:28.982Z,11.39
2018-11-04T23:03:57.828Z,11.42
2018-11-04T23:06:27.701Z,11.37
2018-11-04T23:08:56.337Z,11.32
2018-11-04T23:11:25.012Z,11.45
2018-11-04T23:13:53.645Z,11.37
2018-11-04T23:16:22.417Z,11.41
2018-11-04T23:18:51.276Z,11.41
2018-11-04T23:21:19.833Z,11.35
2018-11-04T23:23:48.440Z,11.41
2018-11-04T23:26:17.027Z,11.35
2018-11-04T23:28:45.617Z,11.36
2018-11-04T23:31:14.335Z,11.34
2018-11-04T23:33:42.894Z,11.38
2018-11-04T23:36:11.429Z,11.42
2018-11-04T23:38:40.001Z,11.57
2018-11-04T23:41:08.534Z,11.33
2018-11-04T23:43:37.121Z,11.35
2018-11-04T23:46:06.512Z,11.32
2018-11-04T23:48:35.242Z,11.24
2018-11-04T23:51:03.871Z,11.28
2018-11-04T23:53:32.496Z,11.28
2018-11-04T23:56:01.057Z,11.28
2018-11-04T23:58:29.653Z,11.30
